Wildhorse Mesa, Colorado
Current Conditions -  °F | °C
As of 11:52 AM on Monday 20 Oct 2014 (Local Time) from KALS Reporting Station
Clear Clear  
Wind Chill: 59°   Ceiling: Unl
Heat Index: 59°   Visibility: 10mi
Dew Point: 36°   Wind: 3mph
Humidity: 42%   Direction: NA
Pressure: 30.3"   Gusts: NA
Location:  37.0838°N, 105.58°W
Report Text: KALS 201752Z AUTO VRB03KT 10SM CLR 15/02 A3030 RMK AO2 SLP204 60000 T01500022 10156 20006 58006
Loading
Personal Weather Stations






























Interactive Weather Map
Tropical Storm Tracking
New forecast layout! Learn more

10-Day Weather Forecast

Advertisements
Track Severe Weather on mobile